createdAt,value
2018-12-01T00:00:31.564Z,95502.44
2018-12-01T00:03:02.695Z,95499.91
2018-12-01T00:05:39.677Z,95506.24
2018-12-01T00:08:10.596Z,95500.69
2018-12-01T00:10:42.165Z,95496.43
2018-12-01T00:13:12.602Z,95500.73
2018-12-01T00:15:42.917Z,95502.45
2018-12-01T00:18:13.247Z,95507.62
2018-12-01T00:20:44.201Z,95502.05
2018-12-01T00:23:14.557Z,95502.08
2018-12-01T00:25:44.868Z,95510.70
2018-12-01T00:28:15.217Z,95504.23
2018-12-01T00:30:45.493Z,95507.02
2018-12-01T00:33:15.731Z,95504.98
2018-12-01T00:35:46.132Z,95499.69
2018-12-01T00:38:16.919Z,95511.81
2018-12-01T00:40:47.272Z,95499.48
2018-12-01T00:43:17.787Z,95497.06
2018-12-01T00:45:48.616Z,95500.75
2018-12-01T00:48:20.218Z,95495.19
2018-12-01T00:50:52.313Z,95493.34
2018-12-01T00:53:23.173Z,95492.67
2018-12-01T00:55:53.960Z,95489.42
2018-12-01T00:58:24.205Z,95490.67
2018-12-01T01:00:54.506Z,95485.95
2018-12-01T01:03:24.704Z,95485.73
2018-12-01T01:05:54.960Z,95500.37
2018-12-01T01:08:25.482Z,95496.45
2018-12-01T01:10:56.654Z,95490.11
2018-12-01T01:13:29.065Z,95487.12
2018-12-01T01:15:59.812Z,95494.17
2018-12-01T01:18:30.626Z,95490.70
2018-12-01T01:21:01.686Z,95486.65
2018-12-01T01:23:32.638Z,95478.92
2018-12-01T01:26:02.853Z,95472.91
2018-12-01T01:28:33.144Z,95465.64
2018-12-01T01:31:03.476Z,95449.84
2018-12-01T01:33:37.466Z,95453.16
2018-12-01T01:36:08.619Z,95446.88
2018-12-01T01:38:38.847Z,95442.47
2018-12-01T01:41:09.286Z,95435.94
2018-12-01T01:43:41.429Z,95450.86
2018-12-01T01:46:12.738Z,95435.70
2018-12-01T01:48:43.489Z,95445.89
2018-12-01T01:51:14.946Z,95455.94
2018-12-01T01:53:46.016Z,95443.08
2018-12-01T01:56:17.285Z,95430.48
2018-12-01T01:58:48.766Z,95413.99
2018-12-01T02:01:19.783Z,95411.25
2018-12-01T02:03:50.172Z,95439.12
2018-12-01T02:06:20.472Z,95427.95
2018-12-01T02:08:50.812Z,95414.17
2018-12-01T02:11:21.197Z,95411.16
2018-12-01T02:13:51.468Z,95412.91
2018-12-01T02:16:21.701Z,95414.29
2018-12-01T02:18:52.638Z,95407.18
2018-12-01T02:21:24.306Z,95417.17
2018-12-01T02:23:54.688Z,95419.70
2018-12-01T02:26:26.961Z,95417.45
2018-12-01T02:28:57.444Z,95422.18
2018-12-01T02:31:28.828Z,95420.52
2018-12-01T02:33:59.922Z,95426.05
2018-12-01T02:36:30.265Z,95425.59
2018-12-01T02:39:01.365Z,95428.65
2018-12-01T02:41:34.752Z,95425.53
2018-12-01T02:44:16.525Z,95424.38
2018-12-01T02:46:57.615Z,95422.24
2018-12-01T02:49:27.856Z,95430.50
2018-12-01T02:51:58.161Z,95435.36
2018-12-01T02:54:29.713Z,95445.78
2018-12-01T02:57:00.112Z,95447.77
2018-12-01T02:59:30.616Z,95451.55
2018-12-01T03:02:00.994Z,95452.84
2018-12-01T03:04:31.915Z,95458.84
2018-12-01T03:07:02.901Z,95462.13
2018-12-01T03:09:33.956Z,95458.13
2018-12-01T03:12:05.510Z,95462.41
2018-12-01T03:14:35.872Z,95456.22
2018-12-01T03:17:06.940Z,95455.77
2018-12-01T03:19:37.282Z,95455.20
2018-12-01T03:22:09.053Z,95456.34
2018-12-01T03:24:39.389Z,95453.89
2018-12-01T03:27:10.255Z,95446.05
2018-12-01T03:29:42.773Z,95441.42
2018-12-01T03:32:13.706Z,95441.33
2018-12-01T03:34:45.436Z,95435.93
2018-12-01T03:37:15.714Z,95441.83
2018-12-01T03:39:46.485Z,95441.39
2018-12-01T03:42:16.901Z,95437.70
2018-12-01T03:44:48.134Z,95446.45
2018-12-01T03:47:20.433Z,95435.06
2018-12-01T03:49:50.710Z,95442.42
2018-12-01T03:52:20.989Z,95441.88
2018-12-01T03:54:55.567Z,95440.36
2018-12-01T03:57:26.602Z,95442.00
2018-12-01T03:59:56.862Z,95437.63
2018-12-01T04:02:27.042Z,95447.84
2018-12-01T04:04:58.750Z,95449.25
2018-12-01T04:07:28.970Z,95447.38
2018-12-01T04:10:00.670Z,95456.95
2018-12-01T04:12:30.927Z,95459.34
2018-12-01T04:15:01.462Z,95458.88
2018-12-01T04:17:32.921Z,95458.08
2018-12-01T04:20:03.155Z,95464.65
2018-12-01T04:22:34.053Z,95463.29
2018-12-01T04:25:05.032Z,95458.45
2018-12-01T04:27:36.024Z,95455.91
2018-12-01T04:30:12.043Z,95448.91
2018-12-01T04:32:43.325Z,95447.77
2018-12-01T04:35:23.593Z,95453.50
2018-12-01T04:37:54.929Z,95451.20
2018-12-01T04:40:27.041Z,95458.56
2018-12-01T04:42:58.287Z,95456.70
2018-12-01T04:45:29.284Z,95448.84
2018-12-01T04:48:00.866Z,95460.83
2018-12-01T04:50:31.545Z,95465.09
2018-12-01T04:53:02.955Z,95471.20
2018-12-01T04:55:34.246Z,95475.56
2018-12-01T04:58:05.480Z,95479.37
2018-12-01T05:00:35.741Z,95469.43
2018-12-01T05:03:07.081Z,95469.95
2018-12-01T05:05:39.407Z,95479.30
2018-12-01T05:08:13.782Z,95481.48
2018-12-01T05:10:45.506Z,95477.80
2018-12-01T05:13:15.700Z,95483.24
2018-12-01T05:15:46.666Z,95495.34
2018-12-01T05:18:16.867Z,95503.19
2018-12-01T05:20:47.172Z,95504.86
2018-12-01T05:23:17.878Z,95506.47
2018-12-01T05:25:48.228Z,95506.45
2018-12-01T05:28:19.875Z,95511.08
2018-12-01T05:30:51.398Z,95507.86
2018-12-01T05:33:21.738Z,95520.30
2018-12-01T05:35:53.502Z,95520.97
2018-12-01T05:38:24.743Z,95520.27
2018-12-01T05:40:55.069Z,95517.99
2018-12-01T05:43:25.503Z,95533.43
2018-12-01T05:45:55.800Z,95535.60
2018-12-01T05:48:26.172Z,95540.55
2018-12-01T05:50:56.550Z,95542.51
2018-12-01T05:53:27.222Z,95543.09
2018-12-01T05:55:58.740Z,95543.30
2018-12-01T05:58:32.362Z,95535.69
2018-12-01T06:01:02.629Z,95541.34
2018-12-01T06:03:34.104Z,95537.33
2018-12-01T06:06:04.919Z,95538.94
2018-12-01T06:08:37.198Z,95541.59
2018-12-01T06:11:08.470Z,95542.93
2018-12-01T06:13:38.852Z,95541.41
2018-12-01T06:16:09.073Z,95545.65
2018-12-01T06:18:39.718Z,95548.86
2018-12-01T06:21:09.996Z,95544.41
2018-12-01T06:23:41.166Z,95550.95
2018-12-01T06:26:11.536Z,95554.27
2018-12-01T06:28:42.942Z,95554.95
2018-12-01T06:31:13.197Z,95557.81
2018-12-01T06:33:45.628Z,95552.71
2018-12-01T06:36:15.915Z,95549.06
2018-12-01T06:38:46.767Z,95552.26
2018-12-01T06:41:17.008Z,95544.11
2018-12-01T06:43:47.349Z,95547.46
2018-12-01T06:46:18.592Z,95548.94
2018-12-01T06:48:50.080Z,95543.72
2018-12-01T06:51:21.091Z,95548.98
2018-12-01T06:53:52.474Z,95541.20
2018-12-01T06:56:23.814Z,95539.84
2018-12-01T06:58:58.499Z,95540.54
2018-12-01T07:01:30.631Z,95549.40
2018-12-01T07:04:02.492Z,95547.40
2018-12-01T07:06:32.998Z,95536.91
2018-12-01T07:09:04.179Z,95532.75
2018-12-01T07:11:35.554Z,95535.90
2018-12-01T07:14:07.258Z,95536.05
2018-12-01T07:16:38.703Z,95539.17
2018-12-01T07:19:18.742Z,95546.23
2018-12-01T07:21:52.003Z,95548.45
2018-12-01T07:24:22.341Z,95551.55
2018-12-01T07:26:53.752Z,95560.63
2018-12-01T07:29:25.757Z,95554.27
2018-12-01T07:31:57.678Z,95558.25
2018-12-01T07:34:28.074Z,95572.17
2018-12-01T07:37:00.157Z,95567.75
2018-12-01T07:39:35.113Z,95561.95
2018-12-01T07:42:08.953Z,95567.01
2018-12-01T07:44:40.048Z,95562.44
2018-12-01T07:47:14.695Z,95568.56
2018-12-01T07:49:52.395Z,95570.95
2018-12-01T07:52:29.890Z,95568.27
2018-12-01T07:55:05.116Z,95574.21
2018-12-01T07:57:36.079Z,95582.64
2018-12-01T08:00:10.637Z,95586.64
2018-12-01T08:02:44.149Z,95581.44
2018-12-01T08:05:14.506Z,95582.48
2018-12-01T08:07:46.052Z,95577.91
2018-12-01T08:10:16.928Z,95584.72
2018-12-01T08:12:47.075Z,95582.84
2018-12-01T08:15:18.178Z,95587.27
2018-12-01T08:17:49.722Z,95589.54
2018-12-01T08:20:22.124Z,95586.30
2018-12-01T08:22:53.445Z,95593.08
2018-12-01T08:25:25.834Z,95590.64
2018-12-01T08:27:58.569Z,95581.50
2018-12-01T08:30:32.556Z,95591.55
2018-12-01T08:33:05.204Z,95582.14
2018-12-01T08:35:35.522Z,95582.92
2018-12-01T08:38:09.477Z,95582.61
2018-12-01T08:40:41.086Z,95575.07
2018-12-01T08:43:20.992Z,95578.12
2018-12-01T08:45:53.190Z,95580.47
2018-12-01T08:48:25.125Z,95582.93
2018-12-01T08:50:58.655Z,95579.69
2018-12-01T08:53:29.637Z,95581.98
2018-12-01T08:56:01.008Z,95580.73
2018-12-01T08:58:31.834Z,95578.98
2018-12-01T09:01:03.538Z,95585.28
2018-12-01T09:03:35.286Z,95583.45
2018-12-01T09:06:06.522Z,95586.10
2018-12-01T09:08:36.933Z,95584.56
2018-12-01T09:11:08.295Z,95580.41
2018-12-01T09:13:39.330Z,95576.33
2018-12-01T09:16:13.582Z,95571.63
2018-12-01T09:18:43.950Z,95575.20
2018-12-01T09:21:14.158Z,95570.80
2018-12-01T09:23:45.200Z,95569.81
2018-12-01T09:26:16.919Z,95561.67
2018-12-01T09:28:48.073Z,95563.50
2018-12-01T09:31:20.474Z,95567.20
2018-12-01T09:33:53.684Z,95569.10
2018-12-01T09:36:24.399Z,95562.51
2018-12-01T09:38:55.732Z,95550.80
2018-12-01T09:41:27.073Z,95550.28
2018-12-01T09:43:57.954Z,95541.53
2018-12-01T09:46:32.827Z,95542.75
2018-12-01T09:49:03.609Z,95549.84
2018-12-01T09:51:34.854Z,95536.55
2018-12-01T09:54:06.257Z,95537.83
2018-12-01T09:56:37.562Z,95537.36
2018-12-01T09:59:10.565Z,95535.20
2018-12-01T10:01:41.818Z,95533.98
2018-12-01T10:04:12.093Z,95528.41
2018-12-01T10:06:44.158Z,95527.58
2018-12-01T10:09:14.564Z,95531.81
2018-12-01T10:11:50.370Z,95533.94
2018-12-01T10:14:15.917Z,95523.08
2018-12-01T10:16:46.350Z,95530.06
2018-12-01T10:19:23.664Z,95523.44
2018-12-01T10:21:53.948Z,95527.18
2018-12-01T10:24:24.224Z,95521.27
2018-12-01T10:26:57.417Z,95522.81
2018-12-01T10:29:34.004Z,95519.80
2018-12-01T10:32:03.851Z,95520.92
2018-12-01T10:34:34.889Z,95516.09
2018-12-01T10:37:05.197Z,95511.65
2018-12-01T10:39:36.270Z,95507.76
2018-12-01T10:42:08.914Z,95500.00
2018-12-01T10:44:42.380Z,95506.31
2018-12-01T10:47:13.832Z,95505.25
2018-12-01T10:49:44.887Z,95502.45
2018-12-01T10:52:17.130Z,95504.60
2018-12-01T10:54:48.696Z,95503.79
2018-12-01T10:57:22.222Z,95512.26
2018-12-01T10:59:52.587Z,95507.20
2018-12-01T11:02:28.117Z,95512.25
2018-12-01T11:05:01.095Z,95507.52
2018-12-01T11:07:32.136Z,95503.30
2018-12-01T11:10:03.093Z,95501.41
2018-12-01T11:12:35.140Z,95503.96
2018-12-01T11:15:08.565Z,95500.34
2018-12-01T11:17:39.607Z,95504.28
2018-12-01T11:20:14.087Z,95497.64
2018-12-01T11:22:51.244Z,95498.23
2018-12-01T11:25:22.605Z,95493.64
2018-12-01T11:27:54.934Z,95488.34
2018-12-01T11:30:25.308Z,95495.02
2018-12-01T11:32:55.708Z,95487.44
2018-12-01T11:35:27.974Z,95489.86
2018-12-01T11:37:58.415Z,95487.97
2018-12-01T11:40:31.045Z,95488.58
2018-12-01T11:43:02.472Z,95481.14
2018-12-01T11:45:33.825Z,95488.77
2018-12-01T11:48:04.234Z,95487.80
2018-12-01T11:50:35.337Z,95487.91
2018-12-01T11:53:06.746Z,95489.77
2018-12-01T11:55:38.546Z,95493.39
2018-12-01T11:58:09.976Z,95487.20
2018-12-01T12:00:43.522Z,95488.56
2018-12-01T12:03:18.326Z,95485.60
2018-12-01T12:05:49.747Z,95486.49
2018-12-01T12:08:38.266Z,95487.97
2018-12-01T12:11:21.748Z,95482.20
2018-12-01T12:13:53.820Z,95488.44
2018-12-01T12:16:25.046Z,95480.02
2018-12-01T12:18:55.439Z,95492.14
2018-12-01T12:21:26.397Z,95486.02
2018-12-01T12:23:58.667Z,95488.87
2018-12-01T12:26:33.805Z,95481.52
2018-12-01T12:29:06.257Z,95483.75
2018-12-01T12:31:39.818Z,95484.54
2018-12-01T12:34:15.585Z,95475.67
2018-12-01T12:36:47.440Z,95485.05
2018-12-01T12:39:17.685Z,95486.45
2018-12-01T12:41:47.707Z,95481.92
2018-12-01T12:44:17.777Z,95482.72
2018-12-01T12:46:48.111Z,95482.81
2018-12-01T12:49:18.431Z,95473.53
2018-12-01T12:51:48.705Z,95472.02
2018-12-01T12:54:19.025Z,95473.29
2018-12-01T12:56:49.314Z,95476.42
2018-12-01T12:59:19.717Z,95483.19
2018-12-01T13:01:50.021Z,95487.44
2018-12-01T13:04:20.275Z,95487.20
2018-12-01T13:06:50.656Z,95484.70
2018-12-01T13:09:21.178Z,95493.77
2018-12-01T13:11:51.535Z,95482.69
2018-12-01T13:14:22.033Z,95480.64
2018-12-01T13:16:52.385Z,95496.70
2018-12-01T13:19:22.558Z,95487.67
2018-12-01T13:21:52.999Z,95494.62
2018-12-01T13:24:23.161Z,95494.67
2018-12-01T13:26:53.564Z,95501.77
2018-12-01T13:29:23.888Z,95499.27
2018-12-01T13:31:54.603Z,95500.09
2018-12-01T13:34:24.566Z,95496.39
2018-12-01T13:36:54.918Z,95500.41
2018-12-01T13:39:25.278Z,95493.82
2018-12-01T13:41:55.580Z,95492.22
2018-12-01T13:44:26.062Z,95497.70
2018-12-01T13:46:56.365Z,95490.64
2018-12-01T13:49:26.699Z,95500.25
2018-12-01T13:51:56.974Z,95506.66
2018-12-01T13:54:27.385Z,95513.08
2018-12-01T13:56:57.671Z,95519.36
2018-12-01T13:59:28.074Z,95521.10
2018-12-01T14:01:58.669Z,95519.19
2018-12-01T14:04:29.057Z,95518.55
2018-12-01T14:06:59.188Z,95514.56
2018-12-01T14:09:29.490Z,95521.60
2018-12-01T14:11:59.824Z,95523.39
2018-12-01T14:14:30.027Z,95529.95
2018-12-01T14:17:00.228Z,95535.55
2018-12-01T14:19:30.541Z,95533.63
2018-12-01T14:22:00.629Z,95530.06
2018-12-01T14:24:31.000Z,95533.87
2018-12-01T14:27:01.436Z,95526.31
2018-12-01T14:36:43.737Z,95522.92
2018-12-01T14:39:14.243Z,95528.16
2018-12-01T14:41:44.572Z,95523.81
2018-12-01T14:44:14.702Z,95497.80
2018-12-01T14:46:44.999Z,95522.86
2018-12-01T14:49:15.329Z,95518.42
2018-12-01T14:51:45.720Z,95525.00
2018-12-01T14:54:16.074Z,95522.77
2018-12-01T14:56:46.399Z,95538.33
2018-12-01T14:59:16.721Z,95531.89
2018-12-01T15:01:47.224Z,95531.56
2018-12-01T15:04:17.473Z,95530.01
2018-12-01T15:06:47.814Z,95528.70
2018-12-01T15:09:18.038Z,95532.84
2018-12-01T15:11:48.466Z,95524.20
2018-12-01T15:14:19.057Z,95526.41
2018-12-01T15:16:51.319Z,95535.16
2018-12-01T15:19:21.968Z,95532.56
2018-12-01T15:21:52.936Z,95533.08
2018-12-01T15:24:24.482Z,95538.67
2018-12-01T15:26:55.699Z,95545.80
2018-12-01T15:29:26.028Z,95547.38
2018-12-01T15:31:56.594Z,95552.78
2018-12-01T15:34:27.357Z,95547.61
2018-12-01T15:36:58.091Z,95549.84
2018-12-01T15:39:29.591Z,95550.97
2018-12-01T15:42:01.351Z,95550.48
2018-12-01T15:44:31.746Z,95556.89
2018-12-01T15:47:02.342Z,95551.11
2018-12-01T15:49:32.783Z,95554.56
2018-12-01T15:52:04.027Z,95560.34
2018-12-01T15:54:34.530Z,95566.07
2018-12-01T15:57:06.120Z,95561.91
2018-12-01T15:59:36.979Z,95563.94
2018-12-01T16:02:09.698Z,95566.79
2018-12-01T16:04:40.601Z,95577.53
2018-12-01T16:07:11.840Z,95573.94
2018-12-01T16:09:43.351Z,95577.20
2018-12-01T16:12:13.873Z,95569.34
2018-12-01T16:14:45.068Z,95574.25
2018-12-01T16:17:16.424Z,95579.22
2018-12-01T16:19:47.082Z,95586.11
2018-12-01T16:22:18.249Z,95581.13
2018-12-01T16:24:48.966Z,95575.67
2018-12-01T16:27:19.455Z,95575.15
2018-12-01T16:29:50.211Z,95573.52
2018-12-01T16:32:21.861Z,95582.05
2018-12-01T16:34:53.120Z,95583.20
2018-12-01T16:37:23.653Z,95591.56
2018-12-01T16:39:54.423Z,95571.67
2018-12-01T16:42:25.053Z,95583.89
2018-12-01T16:44:55.540Z,95589.34
2018-12-01T16:47:26.213Z,95587.16
2018-12-01T16:49:56.791Z,95589.73
2018-12-01T16:52:27.337Z,95590.53
2018-12-01T16:54:57.999Z,95587.73
2018-12-01T16:57:28.501Z,95592.08
2018-12-01T16:59:58.981Z,95594.47
2018-12-01T17:02:29.985Z,95592.62
2018-12-01T17:05:01.428Z,95606.89
2018-12-01T17:07:32.562Z,95604.86
2018-12-01T17:10:02.783Z,95605.92
2018-12-01T17:12:33.468Z,95609.62
2018-12-01T17:15:04.190Z,95612.23
2018-12-01T17:17:34.733Z,95617.87
2018-12-01T17:20:07.133Z,95616.63
2018-12-01T17:22:37.773Z,95624.29
2018-12-01T17:25:11.066Z,95616.09
2018-12-01T17:27:41.489Z,95620.25
2018-12-01T17:30:28.859Z,95629.38
2018-12-01T17:33:00.384Z,95622.19
2018-12-01T17:35:31.830Z,95628.48
2018-12-01T17:38:03.488Z,95621.30
2018-12-01T17:40:43.936Z,95613.88
2018-12-01T17:43:17.650Z,95617.95
2018-12-01T17:45:48.878Z,95620.50
2018-12-01T17:48:19.372Z,95615.80
2018-12-01T17:50:51.017Z,95622.79
2018-12-01T17:53:21.597Z,95631.46
2018-12-01T17:55:52.770Z,95620.36
2018-12-01T17:58:23.303Z,95617.91
2018-12-01T18:00:53.965Z,95612.05
2018-12-01T18:03:24.979Z,95614.69
2018-12-01T18:05:55.477Z,95607.48
2018-12-01T18:08:25.978Z,95615.05
2018-12-01T18:10:56.858Z,95601.04
2018-12-01T18:13:27.750Z,95598.89
2018-12-01T18:15:58.972Z,95593.17
2018-12-01T18:18:29.595Z,95589.20
2018-12-01T18:21:00.339Z,95586.11
2018-12-01T18:23:31.393Z,95590.85
2018-12-01T18:26:01.865Z,95592.12
2018-12-01T18:28:37.631Z,95586.98
2018-12-01T18:31:12.746Z,95593.06
2018-12-01T18:33:44.596Z,95595.32
2018-12-01T18:36:15.539Z,95604.77
2018-12-01T18:38:47.885Z,95603.53
2018-12-01T18:41:18.500Z,95605.00
2018-12-01T18:43:48.988Z,95601.64
2018-12-01T18:46:20.058Z,95595.83
2018-12-01T18:48:50.461Z,95592.43
2018-12-01T18:51:20.977Z,95598.15
2018-12-01T18:53:51.485Z,95602.02
2018-12-01T18:56:22.090Z,95600.41
2018-12-01T18:58:53.154Z,95594.89
2018-12-01T19:01:23.645Z,95599.83
2018-12-01T19:03:54.232Z,95602.59
2018-12-01T19:06:24.589Z,95603.56
2018-12-01T19:08:55.074Z,95600.83
2018-12-01T19:11:26.768Z,95610.31
2018-12-01T19:13:57.126Z,95605.84
2018-12-01T19:16:27.647Z,95617.26
2018-12-01T19:18:58.065Z,95624.45
2018-12-01T19:21:28.409Z,95631.91
2018-12-01T19:23:58.700Z,95623.78
2018-12-01T19:26:29.080Z,95620.82
2018-12-01T19:28:59.925Z,95625.63
2018-12-01T19:31:30.251Z,95622.44
2018-12-01T19:34:00.525Z,95627.34
2018-12-01T19:36:30.724Z,95636.52
2018-12-01T19:39:01.067Z,95643.42
2018-12-01T19:41:31.423Z,95647.25
2018-12-01T19:44:02.718Z,95641.84
2018-12-01T19:46:33.137Z,95633.61
2018-12-01T19:49:03.453Z,95635.63
2018-12-01T19:51:33.904Z,95637.61
2018-12-01T19:54:04.240Z,95637.13
2018-12-01T19:56:34.523Z,95635.34
2018-12-01T19:59:04.895Z,95631.88
2018-12-01T20:01:35.455Z,95635.57
2018-12-01T20:04:05.733Z,95626.14
2018-12-01T20:06:36.168Z,95628.26
2018-12-01T20:09:08.190Z,95623.15
2018-12-01T20:11:38.561Z,95623.39
2018-12-01T20:14:11.409Z,95623.12
2018-12-01T20:16:43.852Z,95619.82
2018-12-01T20:19:14.300Z,95614.50
2018-12-01T20:21:44.693Z,95618.42
2018-12-01T20:24:15.024Z,95613.95
2018-12-01T20:26:45.284Z,95615.59
2018-12-01T20:29:15.673Z,95614.73
2018-12-01T20:31:46.095Z,95621.61
2018-12-01T20:34:16.445Z,95628.97
2018-12-01T20:43:39.538Z,95623.22
2018-12-01T20:46:09.989Z,95622.08
2018-12-01T20:48:40.363Z,95623.66
2018-12-01T20:51:10.678Z,95625.41
2018-12-01T20:53:41.081Z,95629.75
2018-12-01T20:56:14.136Z,95632.67
2018-12-01T20:58:44.389Z,95624.65
2018-12-01T21:01:14.619Z,95622.92
2018-12-01T21:03:45.439Z,95624.80
2018-12-01T21:06:15.884Z,95625.69
2018-12-01T21:08:46.222Z,95624.80
2018-12-01T21:11:17.164Z,95633.23
2018-12-01T21:13:47.479Z,95626.92
2018-12-01T21:16:18.007Z,95626.76
2018-12-01T21:18:48.493Z,95623.98
2018-12-01T21:21:18.886Z,95631.63
2018-12-01T21:23:49.117Z,95629.47
2018-12-01T21:26:19.561Z,95631.46
2018-12-01T21:28:50.021Z,95638.48
2018-12-01T21:31:20.416Z,95643.66
2018-12-01T21:33:50.776Z,95642.95
2018-12-01T21:36:20.991Z,95642.99
2018-12-01T21:38:51.193Z,95646.36
2018-12-01T21:41:21.570Z,95643.39
2018-12-01T21:43:51.823Z,95653.98
2018-12-01T21:46:22.195Z,95651.80
2018-12-01T21:48:52.482Z,95660.20
2018-12-01T21:51:23.870Z,95660.51
2018-12-01T21:53:54.152Z,95655.40
2018-12-01T21:56:24.453Z,95653.98
2018-12-01T21:58:54.686Z,95647.36
2018-12-01T22:01:25.134Z,95651.39
2018-12-01T22:03:55.505Z,95653.41
2018-12-01T22:06:25.849Z,95657.58
2018-12-01T22:08:56.490Z,95658.69
2018-12-01T22:11:26.572Z,95657.75
2018-12-01T22:13:57.076Z,95658.52
2018-12-01T22:16:27.505Z,95662.77
2018-12-01T22:18:57.721Z,95655.84
2018-12-01T22:21:28.287Z,95656.91
2018-12-01T22:23:58.489Z,95655.77
2018-12-01T22:26:28.684Z,95655.02
2018-12-01T22:28:59.118Z,95658.35
2018-12-01T22:31:29.296Z,95654.02
2018-12-01T22:33:59.592Z,95658.33
2018-12-01T22:36:29.891Z,95660.95
2018-12-01T22:39:00.309Z,95659.27
2018-12-01T22:41:30.417Z,95658.33
2018-12-01T22:44:00.833Z,95648.77
2018-12-01T22:46:31.145Z,95657.38
2018-12-01T22:49:01.487Z,95658.05
2018-12-01T22:51:31.830Z,95655.20
2018-12-01T22:54:02.818Z,95652.40
2018-12-01T22:56:33.185Z,95650.61
2018-12-01T22:59:03.612Z,95644.39
2018-12-01T23:01:33.946Z,95642.08
2018-12-01T23:04:04.395Z,95645.57
2018-12-01T23:06:34.729Z,95647.86
2018-12-01T23:09:05.933Z,95647.52
2018-12-01T23:11:36.253Z,95646.61
2018-12-01T23:14:06.662Z,95632.77
2018-12-01T23:16:37.024Z,95650.28
2018-12-01T23:19:07.735Z,95643.89
2018-12-01T23:21:38.111Z,95640.20
2018-12-01T23:24:08.515Z,95638.95
2018-12-01T23:26:38.703Z,95646.28
2018-12-01T23:29:09.100Z,95639.86
2018-12-01T23:31:39.495Z,95644.40
2018-12-01T23:34:09.935Z,95646.08
2018-12-01T23:36:40.211Z,95646.59
2018-12-01T23:39:10.606Z,95648.44
2018-12-01T23:41:40.926Z,95642.52
2018-12-01T23:44:14.261Z,95646.39
2018-12-01T23:46:44.601Z,95638.72
2018-12-01T23:49:14.994Z,95645.04
2018-12-01T23:51:45.346Z,95640.77
2018-12-01T23:54:15.640Z,95642.42
2018-12-01T23:56:45.732Z,95643.39
2018-12-01T23:59:15.985Z,95634.62
